sensor_id;sensor_type;location;lat;lon;timestamp;pressure;altitude;pressure_sealevel;temperature;humidity
72210;BME280;60113;48.762;12.302;2022-10-28T00:00:54;98187.50;;;6.69;84.77
72210;BME280;60113;48.762;12.302;2022-10-28T00:03:20;98199.16;;;6.62;85.42
72210;BME280;60113;48.762;12.302;2022-10-28T00:05:46;98194.97;;;6.58;86.22
72210;BME280;60113;48.762;12.302;2022-10-28T00:08:11;98194.34;;;6.53;85.55
72210;BME280;60113;48.762;12.302;2022-10-28T00:10:36;98195.56;;;6.44;85.78
72210;BME280;60113;48.762;12.302;2022-10-28T00:13:02;98195.16;;;6.34;85.59
72210;BME280;60113;48.762;12.302;2022-10-28T00:15:27;98193.75;;;6.25;85.89
72210;BME280;60113;48.762;12.302;2022-10-28T00:17:53;98187.19;;;6.16;86.03
72210;BME280;60113;48.762;12.302;2022-10-28T00:20:18;98190.97;;;6.09;85.53
72210;BME280;60113;48.762;12.302;2022-10-28T00:22:44;98188.56;;;6.04;85.75
72210;BME280;60113;48.762;12.302;2022-10-28T00:25:09;98183.50;;;5.99;87.49
72210;BME280;60113;48.762;12.302;2022-10-28T00:27:35;98183.72;;;5.95;86.83
72210;BME280;60113;48.762;12.302;2022-10-28T00:30:01;98175.16;;;5.91;84.90
72210;BME280;60113;48.762;12.302;2022-10-28T00:32:30;98168.44;;;5.85;83.97
72210;BME280;60113;48.762;12.302;2022-10-28T00:34:56;98158.19;;;5.81;85.22
72210;BME280;60113;48.762;12.302;2022-10-28T00:37:22;98165.38;;;5.75;85.20
72210;BME280;60113;48.762;12.302;2022-10-28T00:39:48;98162.88;;;5.72;83.62
72210;BME280;60113;48.762;12.302;2022-10-28T00:42:16;98163.00;;;5.69;83.48
72210;BME280;60113;48.762;12.302;2022-10-28T00:50:11;98165.22;;;5.58;86.69
72210;BME280;60113;48.762;12.302;2022-10-28T00:52:40;98156.56;;;5.57;85.48
72210;BME280;60113;48.762;12.302;2022-10-28T00:55:09;98161.56;;;5.62;88.25
72210;BME280;60113;48.762;12.302;2022-10-28T00:57:36;98164.13;;;5.63;88.33
72210;BME280;60113;48.762;12.302;2022-10-28T01:00:05;98170.97;;;5.66;86.15
72210;BME280;60113;48.762;12.302;2022-10-28T01:02:33;98172.75;;;5.66;86.59
72210;BME280;60113;48.762;12.302;2022-10-28T01:05:02;98182.25;;;5.67;88.01
72210;BME280;60113;48.762;12.302;2022-10-28T01:07:28;98171.09;;;5.63;86.94
72210;BME280;60113;48.762;12.302;2022-10-28T01:09:54;98171.22;;;5.60;85.90
72210;BME280;60113;48.762;12.302;2022-10-28T01:17:39;98156.47;;;5.59;89.85
72210;BME280;60113;48.762;12.302;2022-10-28T01:31:48;98158.91;;;5.41;88.57
72210;BME280;60113;48.762;12.302;2022-10-28T01:37:08;98167.78;;;5.37;86.29
72210;BME280;60113;48.762;12.302;2022-10-28T01:39:46;98166.16;;;5.34;86.33
72210;BME280;60113;48.762;12.302;2022-10-28T01:45:17;98175.13;;;5.27;85.12
72210;BME280;60113;48.762;12.302;2022-10-28T01:47:52;98170.88;;;5.24;89.03
72210;BME280;60113;48.762;12.302;2022-10-28T01:53:20;98164.16;;;5.19;86.65
72210;BME280;60113;48.762;12.302;2022-10-28T01:55:49;98163.31;;;5.18;87.17
72210;BME280;60113;48.762;12.302;2022-10-28T01:58:20;98170.34;;;5.16;87.09
72210;BME280;60113;48.762;12.302;2022-10-28T02:00:48;98165.06;;;5.18;87.31
72210;BME280;60113;48.762;12.302;2022-10-28T02:03:15;98167.75;;;5.16;85.32
72210;BME280;60113;48.762;12.302;2022-10-28T02:05:47;98161.69;;;5.16;85.52
72210;BME280;60113;48.762;12.302;2022-10-28T02:14:03;98169.88;;;5.29;88.84
72210;BME280;60113;48.762;12.302;2022-10-28T02:16:43;98169.88;;;5.29;88.25
72210;BME280;60113;48.762;12.302;2022-10-28T02:19:29;98162.94;;;5.28;88.50
72210;BME280;60113;48.762;12.302;2022-10-28T02:22:59;98163.84;;;5.27;88.72
72210;BME280;60113;48.762;12.302;2022-10-28T02:25:18;98162.94;;;5.28;90.08
72210;BME280;60113;48.762;12.302;2022-10-28T02:30:24;98162.34;;;5.21;85.84
72210;BME280;60113;48.762;12.302;2022-10-28T02:32:56;98165.03;;;5.19;86.48
72210;BME280;60113;48.762;12.302;2022-10-28T02:35:47;98155.53;;;5.17;88.19
72210;BME280;60113;48.762;12.302;2022-10-28T02:38:36;98148.66;;;5.16;87.48
72210;BME280;60113;48.762;12.302;2022-10-28T02:41:07;98147.84;;;5.13;87.57
72210;BME280;60113;48.762;12.302;2022-10-28T02:43:36;98151.44;;;5.11;87.16
72210;BME280;60113;48.762;12.302;2022-10-28T02:46:03;98153.31;;;5.07;86.98
72210;BME280;60113;48.762;12.302;2022-10-28T02:48:48;98141.25;;;5.05;88.58
72210;BME280;60113;48.762;12.302;2022-10-28T02:51:24;98146.53;;;5.03;87.58
72210;BME280;60113;48.762;12.302;2022-10-28T02:53:57;98147.38;;;5.04;86.65
72210;BME280;60113;48.762;12.302;2022-10-28T02:56:23;98149.19;;;5.02;86.66
72210;BME280;60113;48.762;12.302;2022-10-28T02:58:50;98145.84;;;4.98;86.46
72210;BME280;60113;48.762;12.302;2022-10-28T03:01:15;98136.47;;;4.94;86.35
72210;BME280;60113;48.762;12.302;2022-10-28T03:03:41;98147.06;;;4.89;86.38
72210;BME280;60113;48.762;12.302;2022-10-28T03:06:07;98140.22;;;4.86;86.02
72210;BME280;60113;48.762;12.302;2022-10-28T03:08:33;98135.97;;;4.84;84.44
72210;BME280;60113;48.762;12.302;2022-10-28T03:10:58;98129.97;;;4.82;86.63
72210;BME280;60113;48.762;12.302;2022-10-28T03:13:24;98134.38;;;4.80;86.13
72210;BME280;60113;48.762;12.302;2022-10-28T03:15:49;98143.00;;;4.82;87.57
72210;BME280;60113;48.762;12.302;2022-10-28T03:18:14;98144.81;;;4.80;86.62
72210;BME280;60113;48.762;12.302;2022-10-28T03:20:40;98156.19;;;4.77;86.90
72210;BME280;60113;48.762;12.302;2022-10-28T03:23:05;98145.94;;;4.72;86.68
72210;BME280;60113;48.762;12.302;2022-10-28T03:25:31;98152.97;;;4.70;86.25
72210;BME280;60113;48.762;12.302;2022-10-28T03:27:56;98155.69;;;4.67;86.03
72210;BME280;60113;48.762;12.302;2022-10-28T03:30:21;98160.19;;;4.63;86.00
72210;BME280;60113;48.762;12.302;2022-10-28T03:32:47;98153.25;;;4.62;84.92
72210;BME280;60113;48.762;12.302;2022-10-28T03:35:12;98141.84;;;4.67;91.23
72210;BME280;60113;48.762;12.302;2022-10-28T03:37:42;98138.84;;;4.76;95.55
72210;BME280;60113;48.762;12.302;2022-10-28T03:40:09;98143.66;;;4.87;91.89
72210;BME280;60113;48.762;12.302;2022-10-28T03:42:34;98147.69;;;4.96;90.30
72210;BME280;60113;48.762;12.302;2022-10-28T03:45:00;98145.78;;;4.99;87.07
72210;BME280;60113;48.762;12.302;2022-10-28T03:47:25;98149.19;;;5.02;89.41
72210;BME280;60113;48.762;12.302;2022-10-28T03:49:51;98142.28;;;5.00;87.84
72210;BME280;60113;48.762;12.302;2022-10-28T03:52:16;98149.31;;;4.98;88.13
72210;BME280;60113;48.762;12.302;2022-10-28T03:54:42;98142.47;;;4.96;86.88
72210;BME280;60113;48.762;12.302;2022-10-28T03:57:07;98144.22;;;4.95;87.11
72210;BME280;60113;48.762;12.302;2022-10-28T03:59:33;98145.13;;;4.94;87.58
72210;BME280;60113;48.762;12.302;2022-10-28T04:01:58;98139.97;;;4.93;87.14
72210;BME280;60113;48.762;12.302;2022-10-28T04:04:24;98138.31;;;4.90;86.62
72210;BME280;60113;48.762;12.302;2022-10-28T04:06:49;98141.78;;;4.91;86.67
72210;BME280;60113;48.762;12.302;2022-10-28T04:09:14;98135.66;;;4.92;87.04
72210;BME280;60113;48.762;12.302;2022-10-28T04:11:40;98137.31;;;4.94;88.47
72210;BME280;60113;48.762;12.302;2022-10-28T04:14:05;98139.81;;;4.97;89.49
72210;BME280;60113;48.762;12.302;2022-10-28T04:16:30;98136.22;;;5.00;86.32
72210;BME280;60113;48.762;12.302;2022-10-28T04:18:56;98137.72;;;5.06;89.18
72210;BME280;60113;48.762;12.302;2022-10-28T04:21:21;98130.47;;;5.14;90.01
72210;BME280;60113;48.762;12.302;2022-10-28T04:23:47;98129.91;;;5.28;88.93
72210;BME280;60113;48.762;12.302;2022-10-28T04:26:12;98137.94;;;5.44;87.92
72210;BME280;60113;48.762;12.302;2022-10-28T04:28:39;98142.84;;;5.52;86.96
72210;BME280;60113;48.762;12.302;2022-10-28T04:31:05;98138.44;;;5.54;86.67
72210;BME280;60113;48.762;12.302;2022-10-28T04:33:30;98141.94;;;5.53;86.13
72210;BME280;60113;48.762;12.302;2022-10-28T04:35:55;98144.63;;;5.52;87.87
72210;BME280;60113;48.762;12.302;2022-10-28T04:38:22;98144.75;;;5.48;88.14
72210;BME280;60113;48.762;12.302;2022-10-28T04:40:47;98150.09;;;5.45;87.50
72210;BME280;60113;48.762;12.302;2022-10-28T04:43:13;98145.00;;;5.42;85.28
72210;BME280;60113;48.762;12.302;2022-10-28T04:45:39;98148.44;;;5.43;87.76
72210;BME280;60113;48.762;12.302;2022-10-28T04:48:04;98148.13;;;5.50;92.01
72210;BME280;60113;48.762;12.302;2022-10-28T04:50:30;98149.91;;;5.71;91.23
72210;BME280;60113;48.762;12.302;2022-10-28T04:52:55;98142.63;;;5.79;89.22
72210;BME280;60113;48.762;12.302;2022-10-28T04:55:21;98157.41;;;5.79;88.19
72210;BME280;60113;48.762;12.302;2022-10-28T04:57:57;98155.78;;;5.76;89.05
72210;BME280;60113;48.762;12.302;2022-10-28T05:00:24;98149.91;;;5.71;88.56
72210;BME280;60113;48.762;12.302;2022-10-28T05:02:50;98151.03;;;5.65;86.98
72210;BME280;60113;48.762;12.302;2022-10-28T05:05:16;98139.97;;;5.58;87.27
72210;BME280;60113;48.762;12.302;2022-10-28T05:07:41;98127.94;;;5.56;88.25
72210;BME280;60113;48.762;12.302;2022-10-28T05:10:07;98128.84;;;5.55;89.77
72210;BME280;60113;48.762;12.302;2022-10-28T05:12:33;98134.97;;;5.54;88.97
72210;BME280;60113;48.762;12.302;2022-10-28T05:14:58;98122.72;;;5.56;88.78
72210;BME280;60113;48.762;12.302;2022-10-28T05:17:24;98122.53;;;5.60;88.23
72210;BME280;60113;48.762;12.302;2022-10-28T05:19:49;98118.81;;;5.66;88.62
72210;BME280;60113;48.762;12.302;2022-10-28T05:22:15;98119.59;;;5.68;89.25
72210;BME280;60113;48.762;12.302;2022-10-28T05:24:40;98128.28;;;5.69;88.67
72210;BME280;60113;48.762;12.302;2022-10-28T05:27:06;98128.34;;;5.67;89.30
72210;BME280;60113;48.762;12.302;2022-10-28T05:29:32;98127.69;;;5.62;89.49
72210;BME280;60113;48.762;12.302;2022-10-28T05:31:57;98127.75;;;5.60;90.26
72210;BME280;60113;48.762;12.302;2022-10-28T05:34:22;98127.00;;;5.57;89.77
72210;BME280;60113;48.762;12.302;2022-10-28T05:36:48;98132.28;;;5.55;89.03
72210;BME280;60113;48.762;12.302;2022-10-28T05:39:15;98131.53;;;5.53;88.33
72210;BME280;60113;48.762;12.302;2022-10-28T05:41:41;98139.41;;;5.52;90.89
72210;BME280;60113;48.762;12.302;2022-10-28T05:44:06;98152.44;;;5.52;92.73
72210;BME280;60113;48.762;12.302;2022-10-28T05:46:32;98155.06;;;5.52;90.29
72210;BME280;60113;48.762;12.302;2022-10-28T05:48:57;98155.06;;;5.52;90.22
72210;BME280;60113;48.762;12.302;2022-10-28T05:51:23;98158.47;;;5.52;87.96
72210;BME280;60113;48.762;12.302;2022-10-28T05:53:48;98157.59;;;5.53;88.13
72210;BME280;60113;48.762;12.302;2022-10-28T05:56:23;98161.03;;;5.54;88.86
72210;BME280;60113;48.762;12.302;2022-10-28T05:58:48;98167.03;;;5.56;91.63
72210;BME280;60113;48.762;12.302;2022-10-28T06:01:13;98169.66;;;5.56;88.85
72210;BME280;60113;48.762;12.302;2022-10-28T06:03:39;98162.63;;;5.58;90.77
72210;BME280;60113;48.762;12.302;2022-10-28T06:06:05;98162.50;;;5.61;88.34
72210;BME280;60113;48.762;12.302;2022-10-28T06:08:30;98166.53;;;5.68;92.60
72210;BME280;60113;48.762;12.302;2022-10-28T06:10:56;98170.72;;;5.72;88.38
72210;BME280;60113;48.762;12.302;2022-10-28T06:13:22;98179.13;;;5.79;87.94
72210;BME280;60113;48.762;12.302;2022-10-28T06:15:55;98175.34;;;5.86;87.98
72210;BME280;60113;48.762;12.302;2022-10-28T06:18:21;98177.63;;;5.94;89.63
72210;BME280;60113;48.762;12.302;2022-10-28T06:20:51;98178.38;;;5.98;89.66
72210;BME280;60113;48.762;12.302;2022-10-28T06:23:18;98176.34;;;6.05;89.47
72210;BME280;60113;48.762;12.302;2022-10-28T06:25:43;98177.88;;;6.10;89.81
72210;BME280;60113;48.762;12.302;2022-10-28T06:28:09;98181.84;;;6.19;89.39
72210;BME280;60113;48.762;12.302;2022-10-28T06:30:34;98178.03;;;6.27;88.75
72210;BME280;60113;48.762;12.302;2022-10-28T06:33:00;98184.78;;;6.32;87.71
72210;BME280;60113;48.762;12.302;2022-10-28T06:35:25;98176.81;;;6.35;88.66
72210;BME280;60113;48.762;12.302;2022-10-28T06:37:55;98174.88;;;6.39;88.84
72210;BME280;60113;48.762;12.302;2022-10-28T06:40:21;98173.13;;;6.40;89.16
72210;BME280;60113;48.762;12.302;2022-10-28T06:42:47;98171.31;;;6.42;89.31
72210;BME280;60113;48.762;12.302;2022-10-28T06:45:12;98174.69;;;6.44;89.37
72210;BME280;60113;48.762;12.302;2022-10-28T06:47:38;98179.78;;;6.47;90.57
72210;BME280;60113;48.762;12.302;2022-10-28T06:50:04;98182.25;;;6.50;89.54
72210;BME280;60113;48.762;12.302;2022-10-28T06:52:29;98183.81;;;6.54;89.17
72210;BME280;60113;48.762;12.302;2022-10-28T06:54:55;98189.69;;;6.59;87.94
72210;BME280;60113;48.762;12.302;2022-10-28T06:57:20;98191.19;;;6.65;88.59
72210;BME280;60113;48.762;12.302;2022-10-28T06:59:46;98199.56;;;6.72;88.90
72210;BME280;60113;48.762;12.302;2022-10-28T07:02:11;98194.06;;;6.78;89.84
72210;BME280;60113;48.762;12.302;2022-10-28T07:04:37;98191.97;;;6.86;89.57
72210;BME280;60113;48.762;12.302;2022-10-28T07:07:06;98203.75;;;6.95;89.80
72210;BME280;60113;48.762;12.302;2022-10-28T07:09:32;98201.66;;;7.04;89.90
72210;BME280;60113;48.762;12.302;2022-10-28T07:11:58;98203.03;;;7.11;90.17
72210;BME280;60113;48.762;12.302;2022-10-28T07:14:23;98200.06;;;7.19;90.53
72210;BME280;60113;48.762;12.302;2022-10-28T07:16:49;98205.00;;;7.25;90.20
72210;BME280;60113;48.762;12.302;2022-10-28T07:19:15;98205.41;;;7.35;90.39
72210;BME280;60113;48.762;12.302;2022-10-28T07:21:41;98211.84;;;7.47;89.32
72210;BME280;60113;48.762;12.302;2022-10-28T07:24:07;98221.06;;;7.54;88.95
72210;BME280;60113;48.762;12.302;2022-10-28T07:26:32;98217.09;;;7.65;89.57
72210;BME280;60113;48.762;12.302;2022-10-28T07:28:58;98207.72;;;7.78;88.44
72210;BME280;60113;48.762;12.302;2022-10-28T07:31:23;98206.13;;;7.93;88.47
72210;BME280;60113;48.762;12.302;2022-10-28T07:33:53;98206.81;;;8.15;91.12
72210;BME280;60113;48.762;12.302;2022-10-28T07:36:19;98221.78;;;8.46;92.00
72210;BME280;60113;48.762;12.302;2022-10-28T07:38:47;98214.38;;;8.88;93.65
72210;BME280;60113;48.762;12.302;2022-10-28T07:41:13;98206.03;;;9.30;94.66
72210;BME280;60113;48.762;12.302;2022-10-28T07:43:38;98212.31;;;9.74;95.50
72210;BME280;60113;48.762;12.302;2022-10-28T07:46:05;98213.81;;;10.09;96.22
72210;BME280;60113;48.762;12.302;2022-10-28T07:48:31;98217.50;;;10.52;97.15
72210;BME280;60113;48.762;12.302;2022-10-28T07:51:02;98215.59;;;10.98;98.29
72210;BME280;60113;48.762;12.302;2022-10-28T07:53:28;98217.28;;;11.41;97.78
72210;BME280;60113;48.762;12.302;2022-10-28T07:55:59;98220.63;;;11.85;98.77
72210;BME280;60113;48.762;12.302;2022-10-28T07:58:25;98217.03;;;12.27;98.97
72210;BME280;60113;48.762;12.302;2022-10-28T08:00:51;98217.78;;;12.55;97.99
72210;BME280;60113;48.762;12.302;2022-10-28T08:03:17;98217.34;;;12.74;96.19
72210;BME280;60113;48.762;12.302;2022-10-28T08:05:43;98219.44;;;12.82;95.73
72210;BME280;60113;48.762;12.302;2022-10-28T08:08:08;98207.00;;;12.84;95.95
72210;BME280;60113;48.762;12.302;2022-10-28T08:10:34;98211.84;;;12.78;95.11
72210;BME280;60113;48.762;12.302;2022-10-28T08:13:00;98209.78;;;12.57;91.08
72210;BME280;60113;48.762;12.302;2022-10-28T08:15:26;98217.38;;;12.35;89.97
72210;BME280;60113;48.762;12.302;2022-10-28T08:17:53;98224.56;;;12.06;89.86
72210;BME280;60113;48.762;12.302;2022-10-28T08:20:18;98229.22;;;11.74;90.55
72210;BME280;60113;48.762;12.302;2022-10-28T08:22:44;98229.56;;;11.55;90.63
72210;BME280;60113;48.762;12.302;2022-10-28T08:25:10;98227.81;;;11.41;91.22
72210;BME280;60113;48.762;12.302;2022-10-28T08:27:35;98226.13;;;11.40;92.27
72210;BME280;60113;48.762;12.302;2022-10-28T08:30:01;98234.69;;;11.44;92.07
72210;BME280;60113;48.762;12.302;2022-10-28T08:32:27;98232.41;;;11.52;92.73
72210;BME280;60113;48.762;12.302;2022-10-28T08:34:52;98231.69;;;11.63;92.67
72210;BME280;60113;48.762;12.302;2022-10-28T08:37:17;98231.59;;;11.65;91.93
72210;BME280;60113;48.762;12.302;2022-10-28T08:39:43;98230.66;;;11.93;92.24
72210;BME280;60113;48.762;12.302;2022-10-28T08:45:04;98223.25;;;12.78;92.09
72210;BME280;60113;48.762;12.302;2022-10-28T08:50:31;98212.41;;;14.18;93.62
72210;BME280;60113;48.762;12.302;2022-10-28T08:53:13;98215.84;;;14.78;92.53
72210;BME280;60113;48.762;12.302;2022-10-28T08:55:46;98209.78;;;15.44;95.02
72210;BME280;60113;48.762;12.302;2022-10-28T08:58:19;98204.69;;;15.97;96.43
72210;BME280;60113;48.762;12.302;2022-10-28T09:00:51;98196.78;;;16.28;95.17
72210;BME280;60113;48.762;12.302;2022-10-28T09:03:28;98200.50;;;16.68;94.43
72210;BME280;60113;48.762;12.302;2022-10-28T09:06:04;98205.72;;;17.11;91.81
72210;BME280;60113;48.762;12.302;2022-10-28T09:08:35;98205.94;;;17.49;91.44
72210;BME280;60113;48.762;12.302;2022-10-28T09:18:50;98183.50;;;19.17;90.64
72210;BME280;60113;48.762;12.302;2022-10-28T09:21:43;98175.31;;;19.46;87.49
72210;BME280;60113;48.762;12.302;2022-10-28T09:24:18;98157.31;;;20.03;87.46
72210;BME280;60113;48.762;12.302;2022-10-28T09:27:02;98170.66;;;20.21;85.80
72210;BME280;60113;48.762;12.302;2022-10-28T09:32:13;98181.13;;;19.14;80.47
72210;BME280;60113;48.762;12.302;2022-10-28T09:34:48;98177.38;;;19.06;85.35
72210;BME280;60113;48.762;12.302;2022-10-28T09:37:23;98189.34;;;18.92;86.15
72210;BME280;60113;48.762;12.302;2022-10-28T09:39:55;98177.66;;;18.75;85.51
72210;BME280;60113;48.762;12.302;2022-10-28T09:42:28;98170.69;;;18.64;83.87
72210;BME280;60113;48.762;12.302;2022-10-28T09:45:01;98172.16;;;18.48;83.32
72210;BME280;60113;48.762;12.302;2022-10-28T09:47:37;98178.22;;;18.31;81.23
72210;BME280;60113;48.762;12.302;2022-10-28T09:50:13;98182.44;;;18.23;80.67
72210;BME280;60113;48.762;12.302;2022-10-28T09:52:51;98180.63;;;18.24;79.81
72210;BME280;60113;48.762;12.302;2022-10-28T09:55:20;98184.41;;;18.21;81.22
72210;BME280;60113;48.762;12.302;2022-10-28T09:57:47;98179.22;;;18.20;81.63
72210;BME280;60113;48.762;12.302;2022-10-28T10:00:14;98179.38;;;18.18;80.69
72210;BME280;60113;48.762;12.302;2022-10-28T10:02:41;98174.06;;;18.18;80.46
72210;BME280;60113;48.762;12.302;2022-10-28T10:05:17;98177.00;;;18.15;77.82
72210;BME280;60113;48.762;12.302;2022-10-28T10:08:10;98180.47;;;18.06;76.58
72210;BME280;60113;48.762;12.302;2022-10-28T10:13:26;98167.03;;;18.07;78.58
72210;BME280;60113;48.762;12.302;2022-10-28T10:15:57;98169.56;;;17.99;75.25
72210;BME280;60113;48.762;12.302;2022-10-28T10:18:27;98171.53;;;17.77;76.07
72210;BME280;60113;48.762;12.302;2022-10-28T10:20:56;98167.09;;;17.58;75.51
72210;BME280;60113;48.762;12.302;2022-10-28T10:23:32;98170.97;;;17.34;73.47
72210;BME280;60113;48.762;12.302;2022-10-28T10:26:05;98165.22;;;17.19;74.01
72210;BME280;60113;48.762;12.302;2022-10-28T10:28:31;98161.78;;;16.97;73.42
72210;BME280;60113;48.762;12.302;2022-10-28T10:30:59;98149.31;;;16.87;74.49
72210;BME280;60113;48.762;12.302;2022-10-28T10:33:34;98157.22;;;16.78;74.17
72210;BME280;60113;48.762;12.302;2022-10-28T10:38:34;98164.31;;;16.67;75.80
72210;BME280;60113;48.762;12.302;2022-10-28T10:41:00;98159.16;;;16.66;76.60
72210;BME280;60113;48.762;12.302;2022-10-28T10:43:33;98149.81;;;16.71;76.61
72210;BME280;60113;48.762;12.302;2022-10-28T10:46:01;98154.56;;;16.78;76.16
72210;BME280;60113;48.762;12.302;2022-10-28T10:48:28;98150.16;;;16.88;76.20
72210;BME280;60113;48.762;12.302;2022-10-28T10:50:57;98146.56;;;16.99;76.89
72210;BME280;60113;48.762;12.302;2022-10-28T10:53:28;98146.19;;;17.14;76.03
72210;BME280;60113;48.762;12.302;2022-10-28T10:56:05;98139.91;;;17.24;75.10
72210;BME280;60113;48.762;12.302;2022-10-28T10:58:38;98138.25;;;17.33;75.79
72210;BME280;60113;48.762;12.302;2022-10-28T11:01:05;98144.25;;;17.55;76.34
72210;BME280;60113;48.762;12.302;2022-10-28T11:03:33;98133.22;;;17.80;76.97
72210;BME280;60113;48.762;12.302;2022-10-28T11:06:02;98139.03;;;18.03;77.15
72210;BME280;60113;48.762;12.302;2022-10-28T11:08:39;98146.91;;;18.15;74.88
72210;BME280;60113;48.762;12.302;2022-10-28T11:13:40;98131.41;;;18.48;76.12
72210;BME280;60113;48.762;12.302;2022-10-28T11:16:16;98125.63;;;18.81;71.86
72210;BME280;60113;48.762;12.302;2022-10-28T11:18:44;98121.63;;;19.23;77.26
72210;BME280;60113;48.762;12.302;2022-10-28T11:24:27;98125.13;;;20.23;73.58
72210;BME280;60113;48.762;12.302;2022-10-28T11:27:12;98130.53;;;20.66;75.94
72210;BME280;60113;48.762;12.302;2022-10-28T11:29:41;98116.81;;;20.96;78.71
72210;BME280;60113;48.762;12.302;2022-10-28T11:32:20;98119.19;;;21.16;76.21
72210;BME280;60113;48.762;12.302;2022-10-28T11:44:02;98091.13;;;22.11;76.51
72210;BME280;60113;48.762;12.302;2022-10-28T11:57:17;98094.19;;;22.48;72.95
72210;BME280;60113;48.762;12.302;2022-10-28T12:00:20;98096.00;;;22.65;69.50
72210;BME280;60113;48.762;12.302;2022-10-28T12:03:00;98088.72;;;22.82;71.48
72210;BME280;60113;48.762;12.302;2022-10-28T12:05:33;98081.13;;;22.94;73.68
72210;BME280;60113;48.762;12.302;2022-10-28T12:08:11;98086.97;;;22.97;72.66
72210;BME280;60113;48.762;12.302;2022-10-28T12:19:17;98070.84;;;23.29;67.95
72210;BME280;60113;48.762;12.302;2022-10-28T12:24:21;98071.19;;;23.26;68.95
72210;BME280;60113;48.762;12.302;2022-10-28T12:26:52;98062.75;;;23.14;70.33
72210;BME280;60113;48.762;12.302;2022-10-28T12:29:28;98062.78;;;23.06;66.12
72210;BME280;60113;48.762;12.302;2022-10-28T12:32:02;98059.16;;;22.98;69.10
72210;BME280;60113;48.762;12.302;2022-10-28T12:34:35;98060.91;;;22.83;66.73
72210;BME280;60113;48.762;12.302;2022-10-28T12:37:16;98061.31;;;22.71;66.63
72210;BME280;60113;48.762;12.302;2022-10-28T12:39:54;98055.38;;;22.53;65.86
72210;BME280;60113;48.762;12.302;2022-10-28T12:42:33;98061.00;;;22.18;63.96
72210;BME280;60113;48.762;12.302;2022-10-28T12:45:02;98065.94;;;21.89;66.31
72210;BME280;60113;48.762;12.302;2022-10-28T12:47:43;98058.06;;;21.46;67.11
72210;BME280;60113;48.762;12.302;2022-10-28T12:50:35;98053.50;;;20.96;63.84
72210;BME280;60113;48.762;12.302;2022-10-28T12:53:17;98061.09;;;20.66;64.97
72210;BME280;60113;48.762;12.302;2022-10-28T12:55:50;98063.19;;;20.46;66.69
72210;BME280;60113;48.762;12.302;2022-10-28T12:58:37;98060.63;;;20.28;63.85
72210;BME280;60113;48.762;12.302;2022-10-28T13:01:08;98066.75;;;20.20;66.99
72210;BME280;60113;48.762;12.302;2022-10-28T13:03:35;98062.72;;;20.16;67.02
72210;BME280;60113;48.762;12.302;2022-10-28T13:20:25;98052.78;;;20.34;66.34
72210;BME280;60113;48.762;12.302;2022-10-28T13:28:48;98060.16;;;20.41;67.61
72210;BME280;60113;48.762;12.302;2022-10-28T13:31:14;98057.66;;;20.39;67.86
72210;BME280;60113;48.762;12.302;2022-10-28T13:34:00;98053.31;;;20.38;67.17
72210;BME280;60113;48.762;12.302;2022-10-28T13:36:34;98050.69;;;20.46;67.87
72210;BME280;60113;48.762;12.302;2022-10-28T13:39:06;98041.41;;;20.67;67.05
72210;BME280;60113;48.762;12.302;2022-10-28T13:41:45;98043.00;;;20.95;69.27
72210;BME280;60113;48.762;12.302;2022-10-28T13:44:46;98034.84;;;21.05;65.90
72210;BME280;60113;48.762;12.302;2022-10-28T13:49:37;98030.00;;;21.08;69.22
72210;BME280;60113;48.762;12.302;2022-10-28T14:00:04;98017.78;;;21.06;69.51
72210;BME280;60113;48.762;12.302;2022-10-28T14:02:40;98005.28;;;20.98;67.92
72210;BME280;60113;48.762;12.302;2022-10-28T14:05:14;98008.09;;;20.96;69.06
72210;BME280;60113;48.762;12.302;2022-10-28T14:07:52;98015.91;;;20.81;67.68
72210;BME280;60113;48.762;12.302;2022-10-28T14:10:24;98021.69;;;20.60;68.04
72210;BME280;60113;48.762;12.302;2022-10-28T14:12:59;98022.47;;;20.35;67.97
72210;BME280;60113;48.762;12.302;2022-10-28T14:15:37;98030.66;;;20.07;68.34
72210;BME280;60113;48.762;12.302;2022-10-28T14:18:16;98026.66;;;19.85;68.35
72210;BME280;60113;48.762;12.302;2022-10-28T14:45:09;98045.53;;;18.56;70.68
72210;BME280;60113;48.762;12.302;2022-10-28T14:48:13;98036.41;;;18.58;70.35
72210;BME280;60113;48.762;12.302;2022-10-28T14:50:46;98024.72;;;18.69;70.30
72210;BME280;60113;48.762;12.302;2022-10-28T14:53:27;98018.63;;;18.77;70.69
72210;BME280;60113;48.762;12.302;2022-10-28T14:58:43;98020.53;;;18.85;70.39
72210;BME280;60113;48.762;12.302;2022-10-28T15:03:41;98021.13;;;18.60;70.27
72210;BME280;60113;48.762;12.302;2022-10-28T15:06:27;98028.09;;;18.43;70.69
72210;BME280;60113;48.762;12.302;2022-10-28T15:08:54;98024.38;;;18.26;70.55
72210;BME280;60113;48.762;12.302;2022-10-28T15:11:21;98029.31;;;18.11;70.63
72210;BME280;60113;48.762;12.302;2022-10-28T15:13:54;98026.72;;;17.91;71.48
72210;BME280;60113;48.762;12.302;2022-10-28T15:16:47;98026.78;;;17.71;71.26
72210;BME280;60113;48.762;12.302;2022-10-28T15:19:16;98017.88;;;17.53;71.35
72210;BME280;60113;48.762;12.302;2022-10-28T15:21:43;98022.38;;;17.32;71.72
72210;BME280;60113;48.762;12.302;2022-10-28T15:24:12;98022.53;;;17.11;72.37
72210;BME280;60113;48.762;12.302;2022-10-28T15:26:38;98017.31;;;16.90;72.77
72210;BME280;60113;48.762;12.302;2022-10-28T15:29:04;98025.94;;;16.72;72.42
72210;BME280;60113;48.762;12.302;2022-10-28T15:41:50;98009.84;;;16.03;74.21
72210;BME280;60113;48.762;12.302;2022-10-28T15:44:36;98004.47;;;15.93;75.48
72210;BME280;60113;48.762;12.302;2022-10-28T15:47:31;98008.03;;;15.82;74.76
72210;BME280;60113;48.762;12.302;2022-10-28T15:49:59;98013.44;;;15.70;73.91
72210;BME280;60113;48.762;12.302;2022-10-28T15:52:38;98006.53;;;15.58;73.82
72210;BME280;60113;48.762;12.302;2022-10-28T15:55:27;98009.22;;;15.46;75.20
72210;BME280;60113;48.762;12.302;2022-10-28T15:57:58;98008.34;;;15.36;76.09